Terminal Aerodrome Forecast
Issued by NWS Raleigh/Durham, NC

Home | Current Version | Previous Version | Text Only | Print | Product List | Glossary On
Versions: 1 2 3 4 5 6 7 8 9 10 11 12 13 14 15 16 17 18 19 20 21
000
FTUS42 KRAH 242340
TAFFAY
TAF
KFAY 242340Z 2500/2524 VRB05KT P6SM SCT250
     FM251000 17008G15KT P6SM SCT015 BKN035
      TEMPO 2511/2515 5SM -SHRA BKN012 OVC025
     FM251500 20014G23KT P6SM SCT025 BKN035 PROB30 2520/2524 2SM
      TSRA BKN025CB=

USA.gov is the U.S. government's official web portal to all federal, state and local government web resources and services.